sensor_id;sensor_type;location;lat;lon;timestamp;P1;durP1;ratioP1;P2;durP2;ratioP2
8401;SDS011;4238;48.404;9.498;2023-06-22T04:02:16;8.43;;;6.32;;
8401;SDS011;4238;48.404;9.498;2023-06-22T04:04:43;6.72;;;6.03;;
8401;SDS011;4238;48.404;9.498;2023-06-22T04:07:10;8.43;;;6.15;;
8401;SDS011;4238;48.404;9.498;2023-06-22T04:09:37;9.68;;;6.68;;
8401;SDS011;4238;48.404;9.498;2023-06-22T04:14:32;6.57;;;5.75;;
8401;SDS011;4238;48.404;9.498;2023-06-22T04:16:58;9.05;;;6.47;;
8401;SDS011;4238;48.404;9.498;2023-06-22T04:19:27;8.35;;;5.80;;
8401;SDS011;4238;48.404;9.498;2023-06-22T04:21:53;6.53;;;5.82;;
8401;SDS011;4238;48.404;9.498;2023-06-22T04:24:20;6.95;;;6.25;;
8401;SDS011;4238;48.404;9.498;2023-06-22T04:26:47;9.10;;;6.38;;
8401;SDS011;4238;48.404;9.498;2023-06-22T04:29:19;7.35;;;6.35;;
8401;SDS011;4238;48.404;9.498;2023-06-22T04:31:55;7.78;;;6.03;;
8401;SDS011;4238;48.404;9.498;2023-06-22T04:34:23;9.00;;;6.55;;
8401;SDS011;4238;48.404;9.498;2023-06-22T04:36:53;7.68;;;5.95;;
8401;SDS011;4238;48.404;9.498;2023-06-22T04:39:20;7.43;;;6.40;;
8401;SDS011;4238;48.404;9.498;2023-06-22T04:41:48;7.05;;;6.35;;
8401;SDS011;4238;48.404;9.498;2023-06-22T04:44:17;8.63;;;6.57;;
8401;SDS011;4238;48.404;9.498;2023-06-22T04:46:49;7.55;;;6.75;;
8401;SDS011;4238;48.404;9.498;2023-06-22T04:49:19;6.70;;;6.00;;
8401;SDS011;4238;48.404;9.498;2023-06-22T04:51:46;8.63;;;5.72;;
8401;SDS011;4238;48.404;9.498;2023-06-22T04:54:15;8.60;;;6.18;;
8401;SDS011;4238;48.404;9.498;2023-06-22T04:56:42;7.55;;;6.25;;
8401;SDS011;4238;48.404;9.498;2023-06-22T04:59:11;11.40;;;6.07;;
8401;SDS011;4238;48.404;9.498;2023-06-22T05:01:39;7.53;;;6.28;;
8401;SDS011;4238;48.404;9.498;2023-06-22T05:04:06;7.88;;;5.75;;
8401;SDS011;4238;48.404;9.498;2023-06-22T05:06:33;7.78;;;6.35;;
8401;SDS011;4238;48.404;9.498;2023-06-22T05:09:00;6.85;;;5.72;;
8401;SDS011;4238;48.404;9.498;2023-06-22T05:11:29;7.68;;;6.00;;
8401;SDS011;4238;48.404;9.498;2023-06-22T05:13:56;7.47;;;5.63;;
8401;SDS011;4238;48.404;9.498;2023-06-22T05:16:23;8.02;;;6.30;;
8401;SDS011;4238;48.404;9.498;2023-06-22T05:18:51;7.40;;;6.35;;
8401;SDS011;4238;48.404;9.498;2023-06-22T05:21:21;9.38;;;6.35;;
8401;SDS011;4238;48.404;9.498;2023-06-22T05:23:49;8.55;;;6.63;;
8401;SDS011;4238;48.404;9.498;2023-06-22T05:26:17;7.57;;;6.40;;
8401;SDS011;4238;48.404;9.498;2023-06-22T05:28:46;7.65;;;6.18;;
8401;SDS011;4238;48.404;9.498;2023-06-22T05:31:13;9.55;;;6.68;;
8401;SDS011;4238;48.404;9.498;2023-06-22T05:33:40;9.75;;;6.78;;
8401;SDS011;4238;48.404;9.498;2023-06-22T05:36:07;7.45;;;6.70;;
8401;SDS011;4238;48.404;9.498;2023-06-22T05:38:34;9.70;;;6.78;;
8401;SDS011;4238;48.404;9.498;2023-06-22T05:41:00;8.43;;;6.72;;
8401;SDS011;4238;48.404;9.498;2023-06-22T05:43:27;8.38;;;6.10;;
8401;SDS011;4238;48.404;9.498;2023-06-22T05:45:56;10.10;;;6.80;;
8401;SDS011;4238;48.404;9.498;2023-06-22T05:48:23;7.10;;;6.40;;
8401;SDS011;4238;48.404;9.498;2023-06-22T05:50:50;9.68;;;6.70;;
8401;SDS011;4238;48.404;9.498;2023-06-22T05:53:17;10.90;;;6.30;;
8401;SDS011;4238;48.404;9.498;2023-06-22T05:55:44;8.43;;;6.82;;
8401;SDS011;4238;48.404;9.498;2023-06-22T05:58:11;7.40;;;6.53;;
8401;SDS011;4238;48.404;9.498;2023-06-22T06:00:38;7.03;;;6.05;;
8401;SDS011;4238;48.404;9.498;2023-06-22T06:03:06;7.18;;;6.47;;
8401;SDS011;4238;48.404;9.498;2023-06-22T06:05:34;7.38;;;6.07;;
8401;SDS011;4238;48.404;9.498;2023-06-22T06:08:01;9.30;;;7.20;;
8401;SDS011;4238;48.404;9.498;2023-06-22T06:10:29;7.22;;;6.47;;
8401;SDS011;4238;48.404;9.498;2023-06-22T06:12:57;7.80;;;7.00;;
8401;SDS011;4238;48.404;9.498;2023-06-22T06:15:24;8.02;;;6.40;;
8401;SDS011;4238;48.404;9.498;2023-06-22T06:17:51;10.00;;;6.82;;
8401;SDS011;4238;48.404;9.498;2023-06-22T06:20:20;8.95;;;6.50;;
8401;SDS011;4238;48.404;9.498;2023-06-22T06:22:49;7.57;;;6.88;;
8401;SDS011;4238;48.404;9.498;2023-06-22T06:25:16;8.98;;;6.57;;
8401;SDS011;4238;48.404;9.498;2023-06-22T06:27:45;6.63;;;5.95;;
8401;SDS011;4238;48.404;9.498;2023-06-22T06:30:13;6.82;;;6.07;;
8401;SDS011;4238;48.404;9.498;2023-06-22T06:32:41;7.72;;;6.05;;
8401;SDS011;4238;48.404;9.498;2023-06-22T06:35:10;9.05;;;6.88;;
8401;SDS011;4238;48.404;9.498;2023-06-22T06:37:40;8.10;;;7.15;;
8401;SDS011;4238;48.404;9.498;2023-06-22T06:40:08;10.73;;;7.05;;
8401;SDS011;4238;48.404;9.498;2023-06-22T06:42:37;8.80;;;6.90;;
8401;SDS011;4238;48.404;9.498;2023-06-22T06:45:07;7.15;;;6.13;;
8401;SDS011;4238;48.404;9.498;2023-06-22T06:47:34;10.02;;;6.53;;
8401;SDS011;4238;48.404;9.498;2023-06-22T06:50:02;8.35;;;7.55;;
8401;SDS011;4238;48.404;9.498;2023-06-22T06:52:29;8.32;;;6.80;;
8401;SDS011;4238;48.404;9.498;2023-06-22T06:54:57;9.27;;;6.55;;
8401;SDS011;4238;48.404;9.498;2023-06-22T06:57:24;6.80;;;6.10;;
8401;SDS011;4238;48.404;9.498;2023-06-22T06:59:53;8.40;;;6.43;;
8401;SDS011;4238;48.404;9.498;2023-06-22T07:02:21;7.57;;;6.45;;
8401;SDS011;4238;48.404;9.498;2023-06-22T07:04:48;7.55;;;6.75;;
8401;SDS011;4238;48.404;9.498;2023-06-22T07:07:15;8.75;;;6.25;;
8401;SDS011;4238;48.404;9.498;2023-06-22T07:09:42;7.85;;;6.88;;
8401;SDS011;4238;48.404;9.498;2023-06-22T07:12:10;7.03;;;6.32;;
8401;SDS011;4238;48.404;9.498;2023-06-22T07:14:37;8.57;;;6.13;;
8401;SDS011;4238;48.404;9.498;2023-06-22T07:17:04;8.90;;;6.50;;
8401;SDS011;4238;48.404;9.498;2023-06-22T07:19:32;11.27;;;6.65;;
8401;SDS011;4238;48.404;9.498;2023-06-22T07:21:59;7.13;;;6.50;;
8401;SDS011;4238;48.404;9.498;2023-06-22T07:24:26;6.97;;;6.03;;
8401;SDS011;4238;48.404;9.498;2023-06-22T07:26:53;9.23;;;7.03;;
8401;SDS011;4238;48.404;9.498;2023-06-22T07:29:21;8.20;;;6.25;;
8401;SDS011;4238;48.404;9.498;2023-06-22T07:31:49;8.55;;;6.72;;
8401;SDS011;4238;48.404;9.498;2023-06-22T07:34:17;10.45;;;7.00;;
8401;SDS011;4238;48.404;9.498;2023-06-22T07:36:44;9.02;;;7.07;;
8401;SDS011;4238;48.404;9.498;2023-06-22T07:39:12;9.63;;;6.88;;
8401;SDS011;4238;48.404;9.498;2023-06-22T07:41:39;10.20;;;7.00;;
8401;SDS011;4238;48.404;9.498;2023-06-22T07:44:06;8.43;;;7.32;;
8401;SDS011;4238;48.404;9.498;2023-06-22T07:46:34;10.48;;;7.25;;
8401;SDS011;4238;48.404;9.498;2023-06-22T07:49:01;10.15;;;6.72;;
8401;SDS011;4238;48.404;9.498;2023-06-22T07:51:28;9.85;;;7.10;;
8401;SDS011;4238;48.404;9.498;2023-06-22T07:53:55;9.73;;;7.20;;
8401;SDS011;4238;48.404;9.498;2023-06-22T07:56:22;11.13;;;7.47;;
8401;SDS011;4238;48.404;9.498;2023-06-22T07:58:49;10.57;;;7.25;;
8401;SDS011;4238;48.404;9.498;2023-06-22T08:01:16;13.68;;;7.38;;
8401;SDS011;4238;48.404;9.498;2023-06-22T08:03:47;10.15;;;7.10;;
8401;SDS011;4238;48.404;9.498;2023-06-22T08:06:14;8.98;;;7.55;;
8401;SDS011;4238;48.404;9.498;2023-06-22T08:08:41;10.18;;;7.28;;
8401;SDS011;4238;48.404;9.498;2023-06-22T08:11:08;7.88;;;6.70;;
8401;SDS011;4238;48.404;9.498;2023-06-22T08:13:35;11.73;;;7.68;;
8401;SDS011;4238;48.404;9.498;2023-06-22T08:16:02;9.00;;;6.53;;
8401;SDS011;4238;48.404;9.498;2023-06-22T08:18:29;8.27;;;7.32;;
8401;SDS011;4238;48.404;9.498;2023-06-22T08:20:58;11.05;;;7.13;;
8401;SDS011;4238;48.404;9.498;2023-06-22T08:23:25;10.55;;;7.15;;
8401;SDS011;4238;48.404;9.498;2023-06-22T08:25:52;9.80;;;7.30;;
8401;SDS011;4238;48.404;9.498;2023-06-22T08:28:18;10.60;;;7.30;;
8401;SDS011;4238;48.404;9.498;2023-06-22T08:30:45;10.35;;;7.35;;
8401;SDS011;4238;48.404;9.498;2023-06-22T08:33:12;7.70;;;6.80;;
8401;SDS011;4238;48.404;9.498;2023-06-22T08:35:39;9.00;;;7.25;;
8401;SDS011;4238;48.404;9.498;2023-06-22T08:38:07;10.25;;;7.07;;
8401;SDS011;4238;48.404;9.498;2023-06-22T08:40:34;10.98;;;7.25;;
8401;SDS011;4238;48.404;9.498;2023-06-22T08:43:01;9.80;;;7.43;;
8401;SDS011;4238;48.404;9.498;2023-06-22T08:45:28;10.73;;;7.47;;
8401;SDS011;4238;48.404;9.498;2023-06-22T08:47:54;11.07;;;7.30;;
8401;SDS011;4238;48.404;9.498;2023-06-22T08:50:21;11.48;;;7.70;;
8401;SDS011;4238;48.404;9.498;2023-06-22T08:52:48;11.43;;;7.70;;
8401;SDS011;4238;48.404;9.498;2023-06-22T08:55:16;12.18;;;7.82;;
8401;SDS011;4238;48.404;9.498;2023-06-22T08:57:43;9.27;;;7.25;;
8401;SDS011;4238;48.404;9.498;2023-06-22T09:00:10;9.50;;;7.90;;
8401;SDS011;4238;48.404;9.498;2023-06-22T09:02:42;12.00;;;7.20;;
8401;SDS011;4238;48.404;9.498;2023-06-22T09:05:09;13.32;;;7.95;;
8401;SDS011;4238;48.404;9.498;2023-06-22T09:07:36;9.02;;;7.07;;
8401;SDS011;4238;48.404;9.498;2023-06-22T09:10:03;10.15;;;7.72;;
8401;SDS011;4238;48.404;9.498;2023-06-22T09:12:32;11.73;;;7.82;;
8401;SDS011;4238;48.404;9.498;2023-06-22T09:14:59;11.88;;;7.53;;
8401;SDS011;4238;48.404;9.498;2023-06-22T09:17:27;8.93;;;7.38;;
8401;SDS011;4238;48.404;9.498;2023-06-22T09:19:54;10.20;;;7.88;;
8401;SDS011;4238;48.404;9.498;2023-06-22T09:22:21;9.65;;;7.20;;
8401;SDS011;4238;48.404;9.498;2023-06-22T09:24:48;9.30;;;6.85;;
8401;SDS011;4238;48.404;9.498;2023-06-22T09:27:15;7.90;;;7.07;;
8401;SDS011;4238;48.404;9.498;2023-06-22T09:29:43;8.82;;;7.63;;
8401;SDS011;4238;48.404;9.498;2023-06-22T09:32:10;9.95;;;7.20;;
8401;SDS011;4238;48.404;9.498;2023-06-22T09:34:37;11.90;;;8.15;;
8401;SDS011;4238;48.404;9.498;2023-06-22T09:37:04;9.13;;;7.20;;
8401;SDS011;4238;48.404;9.498;2023-06-22T09:39:31;10.95;;;7.10;;
8401;SDS011;4238;48.404;9.498;2023-06-22T09:41:59;10.60;;;7.43;;
8401;SDS011;4238;48.404;9.498;2023-06-22T09:44:26;8.43;;;7.63;;
8401;SDS011;4238;48.404;9.498;2023-06-22T09:46:54;10.30;;;7.80;;
8401;SDS011;4238;48.404;9.498;2023-06-22T09:49:21;12.02;;;8.02;;
8401;SDS011;4238;48.404;9.498;2023-06-22T09:51:48;8.85;;;6.90;;
8401;SDS011;4238;48.404;9.498;2023-06-22T09:54:16;10.38;;;7.20;;
8401;SDS011;4238;48.404;9.498;2023-06-22T09:56:42;11.23;;;7.35;;
8401;SDS011;4238;48.404;9.498;2023-06-22T09:59:09;10.50;;;7.80;;
8401;SDS011;4238;48.404;9.498;2023-06-22T10:01:36;10.43;;;7.28;;
8401;SDS011;4238;48.404;9.498;2023-06-22T10:04:04;10.75;;;7.15;;
8401;SDS011;4238;48.404;9.498;2023-06-22T10:06:31;9.00;;;6.63;;
8401;SDS011;4238;48.404;9.498;2023-06-22T10:08:58;10.18;;;7.35;;
8401;SDS011;4238;48.404;9.498;2023-06-22T10:11:25;11.57;;;7.57;;
8401;SDS011;4238;48.404;9.498;2023-06-22T10:13:55;9.18;;;7.35;;
8401;SDS011;4238;48.404;9.498;2023-06-22T10:16:23;11.35;;;7.10;;
8401;SDS011;4238;48.404;9.498;2023-06-22T10:18:51;12.30;;;7.18;;
8401;SDS011;4238;48.404;9.498;2023-06-22T10:21:20;10.57;;;6.97;;
8401;SDS011;4238;48.404;9.498;2023-06-22T10:23:46;14.20;;;7.45;;
8401;SDS011;4238;48.404;9.498;2023-06-22T10:26:13;9.77;;;6.88;;
8401;SDS011;4238;48.404;9.498;2023-06-22T10:28:40;12.05;;;7.90;;
8401;SDS011;4238;48.404;9.498;2023-06-22T10:31:07;11.75;;;6.90;;
8401;SDS011;4238;48.404;9.498;2023-06-22T10:33:34;12.57;;;7.13;;
8401;SDS011;4238;48.404;9.498;2023-06-22T10:36:01;9.05;;;7.05;;
8401;SDS011;4238;48.404;9.498;2023-06-22T10:38:29;8.38;;;7.05;;
8401;SDS011;4238;48.404;9.498;2023-06-22T10:40:56;9.18;;;7.28;;
8401;SDS011;4238;48.404;9.498;2023-06-22T10:43:23;9.15;;;7.18;;
8401;SDS011;4238;48.404;9.498;2023-06-22T10:45:49;11.18;;;7.03;;
8401;SDS011;4238;48.404;9.498;2023-06-22T10:48:16;8.05;;;6.57;;
8401;SDS011;4238;48.404;9.498;2023-06-22T10:50:43;10.82;;;7.22;;
8401;SDS011;4238;48.404;9.498;2023-06-22T10:53:10;11.63;;;7.20;;
8401;SDS011;4238;48.404;9.498;2023-06-22T10:55:38;9.20;;;6.97;;
8401;SDS011;4238;48.404;9.498;2023-06-22T10:58:05;16.02;;;7.10;;
8401;SDS011;4238;48.404;9.498;2023-06-22T11:00:32;8.43;;;6.47;;
8401;SDS011;4238;48.404;9.498;2023-06-22T11:02:59;12.77;;;7.30;;
8401;SDS011;4238;48.404;9.498;2023-06-22T11:05:25;12.85;;;7.32;;
8401;SDS011;4238;48.404;9.498;2023-06-22T11:07:52;11.55;;;7.28;;
8401;SDS011;4238;48.404;9.498;2023-06-22T11:10:19;11.90;;;7.57;;
8401;SDS011;4238;48.404;9.498;2023-06-22T11:12:47;10.48;;;6.65;;
8401;SDS011;4238;48.404;9.498;2023-06-22T11:15:14;10.35;;;7.65;;
8401;SDS011;4238;48.404;9.498;2023-06-22T11:17:41;11.00;;;7.07;;
8401;SDS011;4238;48.404;9.498;2023-06-22T11:20:08;12.82;;;7.57;;
8401;SDS011;4238;48.404;9.498;2023-06-22T11:22:37;11.60;;;7.97;;
8401;SDS011;4238;48.404;9.498;2023-06-22T11:25:04;12.48;;;7.55;;
8401;SDS011;4238;48.404;9.498;2023-06-22T11:27:32;10.95;;;7.82;;
8401;SDS011;4238;48.404;9.498;2023-06-22T11:30:00;11.38;;;7.60;;
8401;SDS011;4238;48.404;9.498;2023-06-22T11:32:27;10.48;;;7.13;;
8401;SDS011;4238;48.404;9.498;2023-06-22T11:34:54;12.15;;;7.80;;
8401;SDS011;4238;48.404;9.498;2023-06-22T11:37:21;8.35;;;7.47;;
8401;SDS011;4238;48.404;9.498;2023-06-22T11:39:48;10.70;;;7.30;;
8401;SDS011;4238;48.404;9.498;2023-06-22T11:42:15;11.65;;;7.50;;
8401;SDS011;4238;48.404;9.498;2023-06-22T11:44:41;11.20;;;7.30;;
8401;SDS011;4238;48.404;9.498;2023-06-22T11:47:10;10.77;;;7.57;;
8401;SDS011;4238;48.404;9.498;2023-06-22T11:49:37;10.05;;;7.18;;
8401;SDS011;4238;48.404;9.498;2023-06-22T11:52:05;10.35;;;7.10;;
8401;SDS011;4238;48.404;9.498;2023-06-22T11:54:32;13.02;;;8.15;;
8401;SDS011;4238;48.404;9.498;2023-06-22T11:56:59;8.90;;;6.50;;
8401;SDS011;4238;48.404;9.498;2023-06-22T11:59:26;10.50;;;7.15;;
8401;SDS011;4238;48.404;9.498;2023-06-22T12:01:53;10.65;;;7.47;;
8401;SDS011;4238;48.404;9.498;2023-06-22T12:04:21;10.20;;;8.20;;
8401;SDS011;4238;48.404;9.498;2023-06-22T12:06:48;10.50;;;7.43;;
8401;SDS011;4238;48.404;9.498;2023-06-22T12:09:15;12.43;;;7.78;;
8401;SDS011;4238;48.404;9.498;2023-06-22T12:11:42;10.07;;;7.35;;
8401;SDS011;4238;48.404;9.498;2023-06-22T12:14:09;10.75;;;7.85;;
8401;SDS011;4238;48.404;9.498;2023-06-22T12:16:36;13.07;;;7.45;;
8401;SDS011;4238;48.404;9.498;2023-06-22T12:19:02;10.88;;;7.40;;
8401;SDS011;4238;48.404;9.498;2023-06-22T12:21:31;11.52;;;7.07;;
8401;SDS011;4238;48.404;9.498;2023-06-22T12:23:58;11.38;;;7.95;;
8401;SDS011;4238;48.404;9.498;2023-06-22T12:26:24;12.95;;;7.18;;
8401;SDS011;4238;48.404;9.498;2023-06-22T12:28:51;10.50;;;7.68;;
8401;SDS011;4238;48.404;9.498;2023-06-22T12:31:18;11.68;;;7.18;;
8401;SDS011;4238;48.404;9.498;2023-06-22T12:33:45;10.88;;;7.60;;
8401;SDS011;4238;48.404;9.498;2023-06-22T12:36:12;12.07;;;7.53;;
8401;SDS011;4238;48.404;9.498;2023-06-22T12:38:40;9.10;;;7.35;;
8401;SDS011;4238;48.404;9.498;2023-06-22T12:41:07;14.77;;;7.15;;
8401;SDS011;4238;48.404;9.498;2023-06-22T12:43:34;13.05;;;7.85;;
8401;SDS011;4238;48.404;9.498;2023-06-22T12:46:01;7.60;;;6.80;;
8401;SDS011;4238;48.404;9.498;2023-06-22T12:48:27;13.65;;;7.32;;
8401;SDS011;4238;48.404;9.498;2023-06-22T12:50:54;12.73;;;7.18;;
8401;SDS011;4238;48.404;9.498;2023-06-22T12:53:21;8.55;;;7.45;;
8401;SDS011;4238;48.404;9.498;2023-06-22T12:55:50;13.52;;;7.38;;
8401;SDS011;4238;48.404;9.498;2023-06-22T12:58:17;11.70;;;7.47;;
8401;SDS011;4238;48.404;9.498;2023-06-22T13:00:44;11.40;;;7.25;;
8401;SDS011;4238;48.404;9.498;2023-06-22T13:03:11;11.10;;;7.70;;
8401;SDS011;4238;48.404;9.498;2023-06-22T13:05:38;12.85;;;7.25;;
8401;SDS011;4238;48.404;9.498;2023-06-22T13:08:05;12.20;;;7.55;;
8401;SDS011;4238;48.404;9.498;2023-06-22T13:10:33;10.63;;;8.07;;
8401;SDS011;4238;48.404;9.498;2023-06-22T13:13:01;15.43;;;7.35;;
8401;SDS011;4238;48.404;9.498;2023-06-22T13:15:28;10.75;;;7.78;;
8401;SDS011;4238;48.404;9.498;2023-06-22T13:17:55;10.80;;;7.82;;
8401;SDS011;4238;48.404;9.498;2023-06-22T13:20:22;12.30;;;8.43;;
8401;SDS011;4238;48.404;9.498;2023-06-22T13:22:48;11.35;;;7.85;;
8401;SDS011;4238;48.404;9.498;2023-06-22T13:25:15;12.02;;;7.95;;
8401;SDS011;4238;48.404;9.498;2023-06-22T13:27:44;12.07;;;8.23;;
8401;SDS011;4238;48.404;9.498;2023-06-22T13:30:12;14.90;;;8.68;;
8401;SDS011;4238;48.404;9.498;2023-06-22T13:32:39;13.70;;;9.23;;
8401;SDS011;4238;48.404;9.498;2023-06-22T13:35:08;13.02;;;9.10;;
8401;SDS011;4238;48.404;9.498;2023-06-22T13:37:35;10.23;;;9.15;;
8401;SDS011;4238;48.404;9.498;2023-06-22T13:40:02;13.80;;;8.77;;
8401;SDS011;4238;48.404;9.498;2023-06-22T13:42:31;14.27;;;9.05;;
8401;SDS011;4238;48.404;9.498;2023-06-22T13:44:58;12.15;;;9.63;;
8401;SDS011;4238;48.404;9.498;2023-06-22T13:47:26;11.75;;;8.38;;
8401;SDS011;4238;48.404;9.498;2023-06-22T13:49:53;11.50;;;7.78;;
8401;SDS011;4238;48.404;9.498;2023-06-22T13:52:20;9.57;;;7.93;;
8401;SDS011;4238;48.404;9.498;2023-06-22T13:54:47;10.25;;;7.78;;
8401;SDS011;4238;48.404;9.498;2023-06-22T13:57:14;9.75;;;7.63;;
8401;SDS011;4238;48.404;9.498;2023-06-22T13:59:41;11.55;;;8.20;;
8401;SDS011;4238;48.404;9.498;2023-06-22T14:02:09;10.07;;;8.18;;
8401;SDS011;4238;48.404;9.498;2023-06-22T14:04:37;10.88;;;7.63;;
8401;SDS011;4238;48.404;9.498;2023-06-22T14:07:04;9.05;;;7.35;;
8401;SDS011;4238;48.404;9.498;2023-06-22T14:09:31;9.75;;;7.78;;
8401;SDS011;4238;48.404;9.498;2023-06-22T14:11:59;11.45;;;8.30;;
8401;SDS011;4238;48.404;9.498;2023-06-22T14:14:29;12.20;;;8.30;;
8401;SDS011;4238;48.404;9.498;2023-06-22T14:16:56;11.90;;;7.88;;
8401;SDS011;4238;48.404;9.498;2023-06-22T14:19:23;11.88;;;7.93;;
8401;SDS011;4238;48.404;9.498;2023-06-22T14:21:52;8.80;;;7.82;;
8401;SDS011;4238;48.404;9.498;2023-06-22T14:24:18;9.48;;;7.72;;
8401;SDS011;4238;48.404;9.498;2023-06-22T14:26:45;11.63;;;8.38;;
8401;SDS011;4238;48.404;9.498;2023-06-22T14:29:12;11.70;;;8.00;;
8401;SDS011;4238;48.404;9.498;2023-06-22T14:31:39;10.85;;;8.27;;
8401;SDS011;4238;48.404;9.498;2023-06-22T14:34:06;11.73;;;7.88;;
8401;SDS011;4238;48.404;9.498;2023-06-22T14:36:33;11.38;;;7.25;;
8401;SDS011;4238;48.404;9.498;2023-06-22T14:39:01;9.40;;;8.00;;
8401;SDS011;4238;48.404;9.498;2023-06-22T14:41:28;10.40;;;7.68;;
8401;SDS011;4238;48.404;9.498;2023-06-22T14:43:56;11.23;;;7.53;;
8401;SDS011;4238;48.404;9.498;2023-06-22T14:46:23;10.68;;;7.80;;
8401;SDS011;4238;48.404;9.498;2023-06-22T14:48:50;10.90;;;7.72;;
8401;SDS011;4238;48.404;9.498;2023-06-22T14:51:16;11.73;;;7.95;;
8401;SDS011;4238;48.404;9.498;2023-06-22T14:53:44;8.13;;;6.82;;
8401;SDS011;4238;48.404;9.498;2023-06-22T14:56:12;12.60;;;7.60;;
8401;SDS011;4238;48.404;9.498;2023-06-22T14:58:40;12.30;;;7.97;;
8401;SDS011;4238;48.404;9.498;2023-06-22T15:01:10;11.07;;;7.10;;
8401;SDS011;4238;48.404;9.498;2023-06-22T15:03:37;11.05;;;7.35;;
8401;SDS011;4238;48.404;9.498;2023-06-22T15:13:51;8.73;;;6.82;;
8401;SDS011;4238;48.404;9.498;2023-06-22T15:16:18;9.38;;;6.70;;
8401;SDS011;4238;48.404;9.498;2023-06-22T15:18:46;8.77;;;6.43;;
8401;SDS011;4238;48.404;9.498;2023-06-22T15:21:13;11.98;;;6.57;;
8401;SDS011;4238;48.404;9.498;2023-06-22T15:23:41;7.45;;;5.88;;
8401;SDS011;4238;48.404;9.498;2023-06-22T15:26:08;7.72;;;5.70;;
8401;SDS011;4238;48.404;9.498;2023-06-22T15:28:35;10.30;;;5.38;;
8401;SDS011;4238;48.404;9.498;2023-06-22T15:31:04;9.05;;;5.05;;
8401;SDS011;4238;48.404;9.498;2023-06-22T15:33:31;10.75;;;5.53;;
8401;SDS011;4238;48.404;9.498;2023-06-22T15:35:58;8.00;;;5.70;;
8401;SDS011;4238;48.404;9.498;2023-06-22T15:38:28;8.23;;;5.68;;
8401;SDS011;4238;48.404;9.498;2023-06-22T15:40:55;8.75;;;5.70;;
8401;SDS011;4238;48.404;9.498;2023-06-22T15:43:22;8.15;;;5.47;;
8401;SDS011;4238;48.404;9.498;2023-06-22T15:45:49;10.43;;;5.75;;
8401;SDS011;4238;48.404;9.498;2023-06-22T15:48:20;7.43;;;5.55;;
8401;SDS011;4238;48.404;9.498;2023-06-22T15:50:47;11.63;;;5.68;;
8401;SDS011;4238;48.404;9.498;2023-06-22T15:53:14;8.88;;;5.90;;
8401;SDS011;4238;48.404;9.498;2023-06-22T15:55:41;9.07;;;5.88;;
8401;SDS011;4238;48.404;9.498;2023-06-22T15:58:07;8.95;;;6.47;;
8401;SDS011;4238;48.404;9.498;2023-06-22T16:00:37;9.20;;;6.32;;
8401;SDS011;4238;48.404;9.498;2023-06-22T16:03:04;10.02;;;7.05;;
8401;SDS011;4238;48.404;9.498;2023-06-22T16:05:32;11.40;;;6.40;;
8401;SDS011;4238;48.404;9.498;2023-06-22T16:07:59;9.88;;;7.13;;
8401;SDS011;4238;48.404;9.498;2023-06-22T16:10:26;10.43;;;7.30;;
8401;SDS011;4238;48.404;9.498;2023-06-22T16:12:53;12.45;;;7.30;;
8401;SDS011;4238;48.404;9.498;2023-06-22T16:15:20;9.73;;;7.65;;
8401;SDS011;4238;48.404;9.498;2023-06-22T16:17:47;12.85;;;8.40;;
8401;SDS011;4238;48.404;9.498;2023-06-22T16:20:13;11.98;;;8.25;;
8401;SDS011;4238;48.404;9.498;2023-06-22T16:22:43;9.85;;;8.18;;
8401;SDS011;4238;48.404;9.498;2023-06-22T16:25:11;11.15;;;7.70;;
8401;SDS011;4238;48.404;9.498;2023-06-22T16:27:37;11.80;;;8.20;;
8401;SDS011;4238;48.404;9.498;2023-06-22T16:30:05;11.13;;;8.32;;
8401;SDS011;4238;48.404;9.498;2023-06-22T16:32:33;9.48;;;7.75;;
8401;SDS011;4238;48.404;9.498;2023-06-22T16:35:00;10.35;;;7.65;;
8401;SDS011;4238;48.404;9.498;2023-06-22T16:37:27;9.27;;;7.22;;
8401;SDS011;4238;48.404;9.498;2023-06-22T16:39:55;7.93;;;6.60;;
8401;SDS011;4238;48.404;9.498;2023-06-22T16:42:22;7.88;;;6.10;;
8401;SDS011;4238;48.404;9.498;2023-06-22T16:44:49;11.15;;;6.07;;
8401;SDS011;4238;48.404;9.498;2023-06-22T16:47:16;9.75;;;6.20;;
8401;SDS011;4238;48.404;9.498;2023-06-22T16:49:43;10.05;;;5.70;;
8401;SDS011;4238;48.404;9.498;2023-06-22T16:52:10;10.02;;;6.32;;
8401;SDS011;4238;48.404;9.498;2023-06-22T16:54:36;8.85;;;6.03;;
8401;SDS011;4238;48.404;9.498;2023-06-22T16:57:06;7.75;;;5.53;;
8401;SDS011;4238;48.404;9.498;2023-06-22T16:59:33;8.35;;;5.07;;
8401;SDS011;4238;48.404;9.498;2023-06-22T17:02:00;9.77;;;5.68;;
8401;SDS011;4238;48.404;9.498;2023-06-22T17:04:28;11.35;;;5.50;;
8401;SDS011;4238;48.404;9.498;2023-06-22T17:07:01;9.05;;;5.70;;
8401;SDS011;4238;48.404;9.498;2023-06-22T17:09:39;10.32;;;5.03;;
8401;SDS011;4238;48.404;9.498;2023-06-22T17:12:11;9.55;;;5.55;;
8401;SDS011;4238;48.404;9.498;2023-06-22T17:14:39;6.88;;;5.05;;
8401;SDS011;4238;48.404;9.498;2023-06-22T17:17:09;10.02;;;5.13;;
8401;SDS011;4238;48.404;9.498;2023-06-22T17:19:36;9.50;;;4.72;;
8401;SDS011;4238;48.404;9.498;2023-06-22T17:22:03;9.68;;;5.40;;
8401;SDS011;4238;48.404;9.498;2023-06-22T17:24:30;9.25;;;5.05;;
8401;SDS011;4238;48.404;9.498;2023-06-22T17:26:57;9.43;;;4.95;;
8401;SDS011;4238;48.404;9.498;2023-06-22T17:29:28;7.47;;;4.53;;
8401;SDS011;4238;48.404;9.498;2023-06-22T17:31:58;8.30;;;4.75;;
8401;SDS011;4238;48.404;9.498;2023-06-22T17:42:11;12.13;;;5.82;;
8401;SDS011;4238;48.404;9.498;2023-06-22T17:44:39;9.35;;;4.55;;
8401;SDS011;4238;48.404;9.498;2023-06-22T17:47:06;6.55;;;4.40;;
8401;SDS011;4238;48.404;9.498;2023-06-22T17:49:33;8.60;;;4.53;;
8401;SDS011;4238;48.404;9.498;2023-06-22T17:52:00;7.05;;;5.03;;
8401;SDS011;4238;48.404;9.498;2023-06-22T17:54:29;6.75;;;4.55;;
8401;SDS011;4238;48.404;9.498;2023-06-22T17:56:56;8.10;;;5.10;;
8401;SDS011;4238;48.404;9.498;2023-06-22T17:59:23;7.97;;;4.88;;
8401;SDS011;4238;48.404;9.498;2023-06-22T18:01:55;9.70;;;4.72;;
8401;SDS011;4238;48.404;9.498;2023-06-22T18:04:22;10.45;;;5.15;;
8401;SDS011;4238;48.404;9.498;2023-06-22T18:06:50;7.25;;;4.40;;
8401;SDS011;4238;48.404;9.498;2023-06-22T18:09:18;6.38;;;4.50;;
8401;SDS011;4238;48.404;9.498;2023-06-22T18:11:45;8.15;;;4.30;;
8401;SDS011;4238;48.404;9.498;2023-06-22T18:14:14;8.45;;;4.45;;
8401;SDS011;4238;48.404;9.498;2023-06-22T18:16:43;8.23;;;3.80;;
8401;SDS011;4238;48.404;9.498;2023-06-22T18:19:13;7.55;;;4.30;;
8401;SDS011;4238;48.404;9.498;2023-06-22T18:21:41;7.85;;;4.50;;
8401;SDS011;4238;48.404;9.498;2023-06-22T18:24:11;6.13;;;4.00;;
8401;SDS011;4238;48.404;9.498;2023-06-22T18:26:39;6.18;;;3.50;;
8401;SDS011;4238;48.404;9.498;2023-06-22T18:29:07;7.55;;;4.15;;
8401;SDS011;4238;48.404;9.498;2023-06-22T18:31:35;7.70;;;3.80;;
8401;SDS011;4238;48.404;9.498;2023-06-22T18:34:03;6.70;;;3.88;;
8401;SDS011;4238;48.404;9.498;2023-06-22T18:36:34;4.43;;;3.75;;
8401;SDS011;4238;48.404;9.498;2023-06-22T18:39:04;8.73;;;4.18;;
8401;SDS011;4238;48.404;9.498;2023-06-22T18:41:33;6.25;;;3.72;;
8401;SDS011;4238;48.404;9.498;2023-06-22T18:44:01;4.43;;;3.72;;
8401;SDS011;4238;48.404;9.498;2023-06-22T18:46:29;4.93;;;3.60;;
8401;SDS011;4238;48.404;9.498;2023-06-22T18:48:59;5.78;;;3.95;;
8401;SDS011;4238;48.404;9.498;2023-06-22T18:51:27;7.22;;;3.55;;
8401;SDS011;4238;48.404;9.498;2023-06-22T18:54:03;7.82;;;3.85;;
8401;SDS011;4238;48.404;9.498;2023-06-22T18:56:30;6.57;;;3.90;;
8401;SDS011;4238;48.404;9.498;2023-06-22T18:58:57;4.85;;;3.80;;
8401;SDS011;4238;48.404;9.498;2023-06-22T19:01:25;6.00;;;3.83;;
8401;SDS011;4238;48.404;9.498;2023-06-22T19:03:55;7.10;;;3.55;;
8401;SDS011;4238;48.404;9.498;2023-06-22T19:14:21;6.75;;;3.47;;
8401;SDS011;4238;48.404;9.498;2023-06-22T19:16:56;4.93;;;3.60;;
8401;SDS011;4238;48.404;9.498;2023-06-22T19:19:24;5.45;;;3.40;;
8401;SDS011;4238;48.404;9.498;2023-06-22T19:21:57;3.70;;;3.35;;
8401;SDS011;4238;48.404;9.498;2023-06-22T19:26:55;6.45;;;3.58;;
8401;SDS011;4238;48.404;9.498;2023-06-22T19:29:24;6.10;;;3.42;;
8401;SDS011;4238;48.404;9.498;2023-06-22T19:31:52;4.43;;;3.05;;
8401;SDS011;4238;48.404;9.498;2023-06-22T19:34:19;7.47;;;3.38;;
8401;SDS011;4238;48.404;9.498;2023-06-22T19:36:48;4.68;;;3.42;;
8401;SDS011;4238;48.404;9.498;2023-06-22T19:39:15;3.63;;;3.30;;
8401;SDS011;4238;48.404;9.498;2023-06-22T19:41:41;5.00;;;3.50;;